createdAt,value
2022-10-23T00:01:25.325Z,102872.63
2022-10-23T00:04:50.301Z,102884.78
2022-10-23T00:08:15.475Z,102869.44
2022-10-23T00:11:41.287Z,102857.72
2022-10-23T00:14:59.342Z,102856.28
2022-10-23T00:18:23.333Z,102858.38
2022-10-23T00:21:47.303Z,102843.72
2022-10-23T00:25:11.325Z,102852.34
2022-10-23T00:28:36.299Z,102851.94
2022-10-23T00:32:00.332Z,102847.22
2022-10-23T00:35:23.300Z,102849.13
2022-10-23T00:38:46.316Z,102842.41
2022-10-23T00:42:10.316Z,102847.28
2022-10-23T00:45:41.329Z,102854.69
2022-10-23T00:49:04.389Z,102844.06
2022-10-23T00:52:28.330Z,102848.03
2022-10-23T00:55:54.341Z,102838.69
2022-10-23T00:59:19.294Z,102834.38
2022-10-23T01:02:43.596Z,102822.25
2022-10-23T01:06:43.363Z,102822.97
2022-10-23T01:10:45.898Z,102824.75
2022-10-23T01:14:07.348Z,102818.47
2022-10-23T01:17:34.307Z,102811.94
2022-10-23T01:21:17.364Z,102811.69
2022-10-23T01:24:58.338Z,102816.44
2022-10-23T01:28:25.327Z,102808.34
2022-10-23T01:32:05.367Z,102802.84
2022-10-23T01:35:50.357Z,102801.50
2022-10-23T01:39:26.365Z,102795.84
2022-10-23T01:42:56.337Z,102794.16
2022-10-23T01:46:31.366Z,102793.00
2022-10-23T01:49:59.321Z,102790.88
2022-10-23T01:53:23.371Z,102804.72
2022-10-23T01:56:50.366Z,102801.91
2022-10-23T02:00:28.345Z,102788.44
2022-10-23T02:03:52.407Z,102785.41
2022-10-23T02:07:17.376Z,102793.38
2022-10-23T02:10:56.924Z,102781.03
2022-10-23T02:14:22.378Z,102787.50
2022-10-23T02:18:17.353Z,102785.66
2022-10-23T02:22:03.378Z,102780.44
2022-10-23T02:25:31.369Z,102778.78
2022-10-23T02:32:38.387Z,102767.72
2022-10-23T02:36:03.351Z,102764.16
2022-10-23T02:39:26.403Z,102751.47
2022-10-23T02:42:56.383Z,102757.09
2022-10-23T02:46:38.375Z,102754.53
2022-10-23T02:50:41.417Z,102747.88
2022-10-23T02:54:18.391Z,102750.28
2022-10-23T02:58:03.393Z,102741.44
2022-10-23T03:01:31.470Z,102731.59
2022-10-23T03:04:58.398Z,102738.56
2022-10-23T03:08:25.405Z,102723.06
2022-10-23T03:11:50.417Z,102715.56
2022-10-23T03:15:14.412Z,102722.59
2022-10-23T03:18:40.392Z,102725.47
2022-10-23T03:22:05.406Z,102738.09
2022-10-23T03:25:30.402Z,102724.81
2022-10-23T03:28:54.406Z,102722.38
2022-10-23T03:32:18.388Z,102724.09
2022-10-23T03:35:42.470Z,102714.63
2022-10-23T03:39:08.392Z,102714.63
2022-10-23T03:42:33.409Z,102725.47
2022-10-23T03:46:00.389Z,102729.88
2022-10-23T03:49:17.432Z,102719.56
2022-10-23T03:52:41.569Z,102723.56
2022-10-23T03:56:05.428Z,102710.00
2022-10-23T03:59:30.404Z,102713.91
2022-10-23T04:02:56.443Z,102703.91
2022-10-23T04:06:21.399Z,102701.09
2022-10-23T04:09:47.547Z,102701.09
2022-10-23T04:13:05.992Z,102705.63
2022-10-23T04:16:24.435Z,102701.13
2022-10-23T04:19:50.398Z,102698.25
2022-10-23T04:23:15.449Z,102692.19
2022-10-23T04:26:39.465Z,102683.63
2022-10-23T04:30:02.438Z,102675.19
2022-10-23T04:33:28.433Z,102684.06
2022-10-23T04:36:53.421Z,102685.03
2022-10-23T04:40:17.433Z,102683.44
2022-10-23T04:43:44.461Z,102678.53
2022-10-23T04:47:09.408Z,102667.78
2022-10-23T04:54:38.439Z,102666.56
2022-10-23T04:58:28.447Z,102669.75
2022-10-23T05:01:53.563Z,102672.00
2022-10-23T05:05:19.426Z,102674.63
2022-10-23T05:08:46.465Z,102671.28
2022-10-23T05:12:27.425Z,102673.78
2022-10-23T05:15:53.482Z,102673.69
2022-10-23T05:19:21.981Z,102689.50
2022-10-23T05:22:51.468Z,102673.41
2022-10-23T05:26:15.428Z,102686.78
2022-10-23T05:29:41.479Z,102677.03
2022-10-23T05:33:08.435Z,102683.63
2022-10-23T05:36:33.478Z,102685.78
2022-10-23T05:39:57.464Z,102691.53
2022-10-23T05:43:17.476Z,102697.16
2022-10-23T05:46:59.462Z,102697.25
2022-10-23T05:50:45.479Z,102695.47
2022-10-23T05:54:22.506Z,102712.75
2022-10-23T05:57:47.087Z,102710.59
2022-10-23T06:01:21.527Z,102709.03
2022-10-23T06:04:50.447Z,102708.25
2022-10-23T06:08:39.501Z,102708.03
2022-10-23T06:12:03.452Z,102717.41
2022-10-23T06:15:32.478Z,102711.31
2022-10-23T06:19:01.496Z,102712.13
2022-10-23T06:22:26.497Z,102712.16
2022-10-23T06:26:06.518Z,102720.72
2022-10-23T06:29:42.471Z,102717.41
2022-10-23T06:33:06.625Z,102714.75
2022-10-23T06:36:30.495Z,102716.94
2022-10-23T06:40:09.512Z,102711.38
2022-10-23T06:43:55.477Z,102713.44
2022-10-23T06:47:44.772Z,102709.66
2022-10-23T06:51:42.491Z,102709.31
2022-10-23T06:55:11.508Z,102713.94
2022-10-23T06:58:30.178Z,102706.34
2022-10-23T07:01:56.531Z,102717.28
2022-10-23T07:05:20.492Z,102726.31
2022-10-23T07:08:44.504Z,102728.31
2022-10-23T07:12:34.616Z,102737.72
2022-10-23T07:16:34.519Z,102739.63
2022-10-23T07:19:59.511Z,102739.25
2022-10-23T07:23:26.501Z,102750.31
2022-10-23T07:26:52.504Z,102749.06
2022-10-23T07:30:18.513Z,102757.41
2022-10-23T07:33:45.499Z,102757.44
2022-10-23T07:37:11.536Z,102753.13
2022-10-23T07:40:36.489Z,102747.22
2022-10-23T07:44:01.544Z,102766.88
2022-10-23T07:47:25.494Z,102759.56
2022-10-23T07:50:53.541Z,102771.66
2022-10-23T07:54:17.499Z,102770.84
2022-10-23T07:58:05.536Z,102778.78
2022-10-23T08:01:47.215Z,102793.38
2022-10-23T08:05:05.536Z,102792.97
2022-10-23T08:08:39.554Z,102804.22
2022-10-23T08:12:02.545Z,102777.16
2022-10-23T08:15:26.529Z,102805.66
2022-10-23T08:18:57.505Z,102819.84
2022-10-23T08:22:22.545Z,102828.81
2022-10-23T08:25:47.530Z,102819.63
2022-10-23T08:29:13.548Z,102827.13
2022-10-23T08:32:39.531Z,102831.91
2022-10-23T08:36:05.571Z,102836.28
2022-10-23T08:39:29.512Z,102835.47
2022-10-23T08:43:03.547Z,102839.00
2022-10-23T08:46:34.521Z,102837.97
2022-10-23T08:50:21.666Z,102850.03
2022-10-23T08:54:01.511Z,102845.66
2022-10-23T08:57:31.550Z,102850.84
2022-10-23T09:00:55.618Z,102852.31
2022-10-23T09:04:19.517Z,102847.50
2022-10-23T09:08:18.580Z,102850.38
2022-10-23T09:11:58.531Z,102846.84
2022-10-23T09:15:57.570Z,102848.75
2022-10-23T09:19:34.533Z,102854.75
2022-10-23T09:22:58.573Z,102848.72
2022-10-23T09:26:32.535Z,102853.31
2022-10-23T09:30:11.575Z,102861.38
2022-10-23T09:33:42.545Z,102857.63
2022-10-23T09:37:12.583Z,102852.75
2022-10-23T09:40:59.539Z,102845.66
2022-10-23T09:44:35.581Z,102850.25
2022-10-23T09:47:58.549Z,102844.78
2022-10-23T09:51:36.569Z,102840.44
2022-10-23T09:55:14.561Z,102853.66
2022-10-23T09:58:54.574Z,102844.47
2022-10-23T10:02:12.234Z,102850.81
2022-10-23T10:05:51.590Z,102838.66
2022-10-23T10:09:21.600Z,102825.16
2022-10-23T10:12:54.565Z,102827.13
2022-10-23T10:20:40.667Z,102824.72
2022-10-23T10:24:32.596Z,102833.69
2022-10-23T10:28:08.567Z,102838.69
2022-10-23T10:31:49.462Z,102839.34
2022-10-23T10:35:23.584Z,102844.53
2022-10-23T10:39:02.588Z,102848.81
2022-10-23T10:42:58.607Z,102842.53
2022-10-23T10:46:36.610Z,102846.00
2022-10-23T10:50:24.603Z,102849.44
2022-10-23T10:54:34.572Z,102847.06
2022-10-23T10:58:02.603Z,102836.69
2022-10-23T11:01:37.727Z,102834.69
2022-10-23T11:05:24.621Z,102835.06
2022-10-23T11:09:03.996Z,102836.53
2022-10-23T11:12:41.616Z,102841.75
2022-10-23T11:16:06.581Z,102840.91
2022-10-23T11:19:41.620Z,102843.03
2022-10-23T11:23:21.585Z,102844.78
2022-10-23T11:27:34.612Z,102840.34
2022-10-23T11:31:18.578Z,102832.81
2022-10-23T11:35:03.628Z,102840.13
2022-10-23T11:38:29.599Z,102832.59
2022-10-23T11:42:01.619Z,102832.06
2022-10-23T11:45:47.590Z,102833.22
2022-10-23T11:49:13.613Z,102825.72
2022-10-23T11:52:45.698Z,102836.91
2022-10-23T11:56:22.616Z,102838.88
2022-10-23T12:00:05.724Z,102837.03
2022-10-23T12:03:35.594Z,102833.94
2022-10-23T12:07:13.636Z,102837.34
2022-10-23T12:10:46.617Z,102843.63
2022-10-23T12:17:38.611Z,102829.88
2022-10-23T12:21:09.628Z,102823.13
2022-10-23T12:24:47.626Z,102816.25
2022-10-23T12:28:37.730Z,102815.91
2022-10-23T12:32:13.601Z,102812.94
2022-10-23T12:35:44.630Z,102807.38
2022-10-23T12:39:09.625Z,102801.59
2022-10-23T12:42:38.643Z,102803.34
2022-10-23T12:46:01.621Z,102802.28
2022-10-23T12:49:39.679Z,102796.69
2022-10-23T12:53:11.610Z,102791.75
2022-10-23T12:56:35.356Z,102790.34
2022-10-23T12:59:59.620Z,102777.28
2022-10-23T13:03:26.660Z,102769.84
2022-10-23T13:06:50.649Z,102765.22
2022-10-23T13:10:09.212Z,102756.41
2022-10-23T13:13:37.655Z,102757.84
2022-10-23T13:17:02.633Z,102747.00
2022-10-23T13:20:42.641Z,102745.63
2022-10-23T13:24:06.633Z,102752.34
2022-10-23T13:27:46.738Z,102750.69
2022-10-23T13:31:26.637Z,102759.50
2022-10-23T13:34:58.170Z,102763.50
2022-10-23T13:38:28.633Z,102762.03
2022-10-23T13:41:56.683Z,102766.28
2022-10-23T13:45:27.657Z,102746.81
2022-10-23T13:48:50.678Z,102756.56
2022-10-23T13:52:14.628Z,102758.66
2022-10-23T13:55:41.696Z,102749.22
2022-10-23T13:59:05.666Z,102728.16
2022-10-23T14:02:37.747Z,102722.34
2022-10-23T14:06:01.673Z,102719.38
2022-10-23T14:09:27.652Z,102719.78
2022-10-23T14:12:49.669Z,102715.78
2022-10-23T14:16:14.686Z,102724.53
2022-10-23T14:19:38.633Z,102721.84
2022-10-23T14:23:02.683Z,102716.25
2022-10-23T14:26:28.661Z,102711.50
2022-10-23T14:29:51.668Z,102706.25
2022-10-23T14:33:15.671Z,102712.09
2022-10-23T14:36:49.881Z,102711.84
2022-10-23T14:40:15.704Z,102705.28
2022-10-23T14:43:39.658Z,102712.81
2022-10-23T14:47:03.698Z,102717.78
2022-10-23T14:50:28.649Z,102703.31
2022-10-23T14:53:53.018Z,102702.31
2022-10-23T14:57:23.661Z,102715.44
2022-10-23T15:00:47.687Z,102710.44
2022-10-23T15:04:11.670Z,102704.97
2022-10-23T15:07:34.704Z,102705.28
2022-10-23T15:10:52.250Z,102707.44
2022-10-23T15:14:10.709Z,102696.06
2022-10-23T15:17:34.701Z,102693.22
2022-10-23T15:21:06.681Z,102681.47
2022-10-23T15:24:31.693Z,102694.63
2022-10-23T15:27:56.705Z,102703.47
2022-10-23T15:31:20.715Z,102708.13
2022-10-23T15:34:45.676Z,102694.88
2022-10-23T15:38:10.691Z,102692.34
2022-10-23T15:41:46.700Z,102693.09
2022-10-23T15:45:10.670Z,102688.91
2022-10-23T15:48:34.708Z,102699.91
2022-10-23T15:51:59.806Z,102698.41
2022-10-23T15:55:23.695Z,102689.75
2022-10-23T15:58:47.681Z,102675.91
2022-10-23T16:02:12.808Z,102676.47
2022-10-23T16:05:36.690Z,102671.63
2022-10-23T16:12:16.284Z,102680.09
2022-10-23T16:15:34.705Z,102674.16
2022-10-23T16:18:59.686Z,102673.25
2022-10-23T16:22:23.719Z,102669.16
2022-10-23T16:25:49.731Z,102669.22
2022-10-23T16:29:15.733Z,102670.84
2022-10-23T16:32:38.706Z,102681.78
2022-10-23T16:36:02.722Z,102673.19
2022-10-23T16:39:45.825Z,102676.38
2022-10-23T16:43:32.687Z,102685.47
2022-10-23T16:47:07.738Z,102672.16
2022-10-23T16:50:31.751Z,102670.97
2022-10-23T16:53:57.723Z,102671.25
2022-10-23T16:57:20.706Z,102682.03
2022-10-23T17:00:44.747Z,102682.50
2022-10-23T17:04:08.728Z,102675.94
2022-10-23T17:07:32.736Z,102682.97
2022-10-23T17:10:56.721Z,102670.13
2022-10-23T17:14:28.732Z,102663.44
2022-10-23T17:17:52.724Z,102672.38
2022-10-23T17:21:16.724Z,102663.59
2022-10-23T17:24:39.710Z,102656.34
2022-10-23T17:28:04.750Z,102663.59
2022-10-23T17:31:30.735Z,102660.38
2022-10-23T17:34:55.735Z,102667.66
2022-10-23T17:38:18.734Z,102674.13
2022-10-23T17:41:42.725Z,102664.75
2022-10-23T17:45:05.756Z,102678.59
2022-10-23T17:48:29.718Z,102676.66
2022-10-23T17:51:53.772Z,102669.19
2022-10-23T17:55:17.759Z,102665.31
2022-10-23T17:58:41.719Z,102671.28
2022-10-23T18:02:07.859Z,102681.59
2022-10-23T18:05:30.753Z,102667.72
2022-10-23T18:08:55.782Z,102673.88
2022-10-23T18:12:19.724Z,102673.94
2022-10-23T18:15:43.778Z,102674.50
2022-10-23T18:19:08.742Z,102675.66
2022-10-23T18:22:31.769Z,102682.06
2022-10-23T18:25:57.760Z,102682.78
2022-10-23T18:29:25.778Z,102679.97
2022-10-23T18:32:49.753Z,102689.81
2022-10-23T18:36:13.778Z,102689.41
2022-10-23T18:39:40.883Z,102677.03
2022-10-23T18:43:07.016Z,102676.56
2022-10-23T18:46:33.762Z,102674.22
2022-10-23T18:49:56.739Z,102687.19
2022-10-23T18:53:20.759Z,102679.75
2022-10-23T18:56:45.757Z,102681.44
2022-10-23T19:00:13.746Z,102680.59
2022-10-23T19:03:36.777Z,102672.00
2022-10-23T19:07:02.734Z,102676.34
2022-10-23T19:10:27.779Z,102686.69
2022-10-23T19:13:51.772Z,102682.06
2022-10-23T19:17:18.769Z,102673.13
2022-10-23T19:20:42.751Z,102662.88
2022-10-23T19:24:07.873Z,102664.75
2022-10-23T19:27:30.762Z,102664.97
2022-10-23T19:30:54.781Z,102665.84
2022-10-23T19:34:18.790Z,102662.84
2022-10-23T19:37:42.959Z,102665.19
2022-10-23T19:41:07.786Z,102658.50
2022-10-23T19:44:32.756Z,102658.03
2022-10-23T19:47:55.794Z,102659.28
2022-10-23T19:51:22.783Z,102658.56
2022-10-23T19:54:47.783Z,102658.16
2022-10-23T19:58:12.793Z,102649.91
2022-10-23T20:01:38.989Z,102657.22
2022-10-23T20:05:03.766Z,102665.38
2022-10-23T20:08:29.087Z,102650.13
2022-10-23T20:11:56.771Z,102643.13
2022-10-23T20:15:20.807Z,102645.13
2022-10-23T20:18:44.763Z,102637.00
2022-10-23T20:22:08.816Z,102634.28
2022-10-23T20:25:32.794Z,102622.91
2022-10-23T20:28:59.807Z,102623.72
2022-10-23T20:32:23.804Z,102624.53
2022-10-23T20:39:37.812Z,102614.69
2022-10-23T20:42:55.808Z,102602.94
2022-10-23T20:46:20.800Z,102613.00
2022-10-23T20:49:43.825Z,102612.22
2022-10-23T20:53:06.802Z,102610.94
2022-10-23T20:56:42.821Z,102603.97
2022-10-23T21:00:05.811Z,102599.84
2022-10-23T21:03:29.824Z,102589.06
2022-10-23T21:07:08.804Z,102579.28
2022-10-23T21:10:33.818Z,102588.13
2022-10-23T21:13:59.801Z,102584.06
2022-10-23T21:17:25.906Z,102563.78
2022-10-23T21:20:49.799Z,102572.91
2022-10-23T21:24:12.847Z,102563.53
2022-10-23T21:27:37.962Z,102563.84
2022-10-23T21:31:01.818Z,102569.25
2022-10-23T21:34:25.855Z,102564.47
2022-10-23T21:37:49.818Z,102567.06
2022-10-23T21:41:24.838Z,102559.84
2022-10-23T21:44:48.815Z,102561.28
2022-10-23T21:48:13.853Z,102561.03
2022-10-23T21:51:43.837Z,102556.13
2022-10-23T21:55:09.842Z,102553.41
2022-10-23T21:58:33.836Z,102541.00
2022-10-23T22:01:59.960Z,102551.47
2022-10-23T22:05:23.860Z,102544.94
2022-10-23T22:08:47.853Z,102538.63
2022-10-23T22:12:11.837Z,102542.44
2022-10-23T22:15:35.920Z,102530.88
2022-10-23T22:18:52.414Z,102530.53
2022-10-23T22:22:09.952Z,102519.63
2022-10-23T22:25:32.842Z,102523.78
2022-10-23T22:28:56.853Z,102516.94
2022-10-23T22:35:45.851Z,102517.16
2022-10-23T22:39:10.883Z,102521.88
2022-10-23T22:42:34.860Z,102512.25
2022-10-23T22:45:58.962Z,102512.69
2022-10-23T22:49:22.850Z,102504.50
2022-10-23T22:52:47.047Z,102502.63
2022-10-23T22:56:10.871Z,102498.53
2022-10-23T22:59:34.898Z,102493.97
2022-10-23T23:02:58.883Z,102496.06
2022-10-23T23:06:23.878Z,102500.69
2022-10-23T23:09:56.854Z,102491.91
2022-10-23T23:13:21.893Z,102493.03
2022-10-23T23:16:45.877Z,102481.88
2022-10-23T23:20:09.903Z,102490.47
2022-10-23T23:23:33.889Z,102485.03
2022-10-23T23:26:58.888Z,102467.31
2022-10-23T23:30:23.881Z,102482.88
2022-10-23T23:33:47.905Z,102466.13
2022-10-23T23:37:11.873Z,102462.22
2022-10-23T23:40:35.931Z,102459.53
2022-10-23T23:43:59.864Z,102467.78
2022-10-23T23:47:23.955Z,102464.41
2022-10-23T23:50:47.901Z,102451.88
2022-10-23T23:54:10.886Z,102437.59
2022-10-23T23:57:27.910Z,102454.38
